createdAt,value
2023-03-20T00:00:53.991Z,98841.03
2023-03-20T00:01:56.506Z,98840.50
2023-03-20T00:02:59.330Z,98837.53
2023-03-20T00:04:01.152Z,98846.97
2023-03-20T00:05:03.015Z,98837.81
2023-03-20T00:06:05.204Z,98834.31
2023-03-20T00:07:10.557Z,98840.50
2023-03-20T00:08:12.817Z,98839.97
2023-03-20T00:09:14.812Z,98835.69
2023-03-20T00:10:21.553Z,98838.63
2023-03-20T00:11:36.804Z,98835.41
2023-03-20T00:12:39.240Z,98838.91
2023-03-20T00:13:41.326Z,98837.28
2023-03-20T00:14:43.296Z,98836.47
2023-03-20T00:15:45.744Z,98836.75
2023-03-20T00:16:50.609Z,98832.97
2023-03-20T00:17:53.025Z,98832.97
2023-03-20T00:18:56.350Z,98840.25
2023-03-20T00:19:58.276Z,98831.38
2023-03-20T00:21:00.659Z,98841.34
2023-03-20T00:22:02.629Z,98835.97
2023-03-20T00:23:05.003Z,98838.66
2023-03-20T00:24:07.925Z,98842.97
2023-03-20T00:25:23.569Z,98838.09
2023-03-20T00:26:30.867Z,98844.56
2023-03-20T00:27:32.640Z,98835.97
2023-03-20T00:28:47.994Z,98838.66
2023-03-20T00:29:50.139Z,98842.44
2023-03-20T00:30:52.032Z,98844.31
2023-03-20T00:31:55.549Z,98845.13
2023-03-20T00:32:58.825Z,98841.63
2023-03-20T00:34:05.615Z,98838.94
2023-03-20T00:35:31.127Z,98849.97
2023-03-20T00:36:33.869Z,98847.31
2023-03-20T00:37:35.745Z,98850.53
2023-03-20T00:38:37.592Z,98851.34
2023-03-20T00:39:40.420Z,98852.16
2023-03-20T00:40:42.295Z,98849.72
2023-03-20T00:42:01.861Z,98851.06
2023-03-20T00:43:05.033Z,98851.63
2023-03-20T00:44:41.817Z,98858.09
2023-03-20T00:45:46.668Z,98844.34
2023-03-20T00:46:54.962Z,98848.94
2023-03-20T00:47:58.585Z,98855.41
2023-03-20T00:49:01.759Z,98852.19
2023-03-20T00:50:20.728Z,98849.72
2023-03-20T00:51:22.545Z,98853.00
2023-03-20T00:52:25.172Z,98851.38
2023-03-20T00:53:26.933Z,98857.56
2023-03-20T00:54:29.125Z,98854.88
2023-03-20T00:55:30.955Z,98858.94
2023-03-20T00:56:41.778Z,98855.16
2023-03-20T00:57:49.534Z,98855.97
2023-03-20T00:58:51.641Z,98860.56
2023-03-20T01:00:05.041Z,98856.78
2023-03-20T01:01:07.006Z,98846.56
2023-03-20T01:02:11.729Z,98856.78
2023-03-20T01:03:25.858Z,98847.63
2023-03-20T01:04:38.006Z,98855.72
2023-03-20T01:05:40.764Z,98856.53
2023-03-20T01:06:43.523Z,98850.88
2023-03-20T01:07:46.032Z,98850.88
2023-03-20T01:08:48.824Z,98851.44
2023-03-20T01:09:50.637Z,98856.81
2023-03-20T01:10:58.609Z,98855.44
2023-03-20T01:12:02.225Z,98856.81
2023-03-20T01:13:04.402Z,98849.00
2023-03-20T01:14:13.600Z,98852.22
2023-03-20T01:15:21.214Z,98855.44
2023-03-20T01:16:27.099Z,98854.66
2023-03-20T01:17:29.963Z,98856.28
2023-03-20T01:18:31.949Z,98853.31
2023-03-20T01:19:33.856Z,98851.72
2023-03-20T01:20:35.684Z,98851.44
2023-03-20T01:21:37.534Z,98854.41
2023-03-20T01:22:39.290Z,98852.78
2023-03-20T01:23:41.638Z,98850.38
2023-03-20T01:24:44.082Z,98853.88
2023-03-20T01:25:46.230Z,98850.91
2023-03-20T01:26:49.205Z,98850.38
2023-03-20T01:27:54.736Z,98853.59
2023-03-20T01:28:58.040Z,98858.19
2023-03-20T01:29:59.919Z,98847.69
2023-03-20T01:31:01.771Z,98849.28
2023-03-20T01:32:03.876Z,98847.69
2023-03-20T01:33:19.262Z,98850.09
2023-03-20T01:34:21.627Z,98853.06
2023-03-20T01:35:27.656Z,98858.47
2023-03-20T01:36:29.640Z,98854.41
2023-03-20T01:37:33.234Z,98853.59
2023-03-20T01:38:36.001Z,98859.28
2023-03-20T01:39:38.017Z,98853.06
2023-03-20T01:41:02.754Z,98848.22
2023-03-20T01:42:07.276Z,98853.59
2023-03-20T01:43:22.306Z,98856.00
2023-03-20T01:44:30.265Z,98847.69
2023-03-20T01:45:36.329Z,98852.56
2023-03-20T01:46:40.470Z,98855.25
2023-03-20T01:47:42.578Z,98857.13
2023-03-20T01:48:50.107Z,98861.44
2023-03-20T01:50:20.130Z,98856.84
2023-03-20T01:51:37.615Z,98857.41
2023-03-20T01:52:39.919Z,98860.91
2023-03-20T01:53:43.169Z,98862.28
2023-03-20T01:54:45.323Z,98860.13
2023-03-20T01:55:51.726Z,98867.66
2023-03-20T01:57:17.525Z,98869.00
2023-03-20T01:58:28.238Z,98866.31
2023-03-20T01:59:43.517Z,98863.91
2023-03-20T02:00:48.720Z,98868.75
2023-03-20T02:01:51.117Z,98862.03
2023-03-20T02:02:55.553Z,98860.72
2023-03-20T02:03:57.558Z,98871.47
2023-03-20T02:05:08.393Z,98867.44
2023-03-20T02:06:11.714Z,98869.59
2023-03-20T02:07:18.249Z,98867.69
2023-03-20T02:08:41.654Z,98870.66
2023-03-20T02:09:43.489Z,98868.78
2023-03-20T02:10:49.355Z,98877.41
2023-03-20T02:11:53.742Z,98870.13
2023-03-20T02:12:55.852Z,98873.63
2023-03-20T02:14:01.311Z,98871.72
2023-03-20T02:15:04.816Z,98877.94
2023-03-20T02:16:17.976Z,98881.19
2023-03-20T02:17:20.282Z,98872.81
2023-03-20T02:18:22.246Z,98879.25
2023-03-20T02:19:37.820Z,98883.59
2023-03-20T02:21:15.994Z,98879.28
2023-03-20T02:22:51.261Z,98882.78
2023-03-20T02:24:14.779Z,98884.13
2023-03-20T02:26:07.441Z,98882.78
2023-03-20T02:27:28.947Z,98877.91
2023-03-20T02:29:26.634Z,98877.41
2023-03-20T02:30:50.359Z,98876.03
2023-03-20T02:32:56.096Z,98872.53
2023-03-20T02:34:24.917Z,98876.59
2023-03-20T02:35:53.031Z,98877.13
2023-03-20T02:37:41.706Z,98878.75
2023-03-20T02:39:08.166Z,98878.47
2023-03-20T02:41:08.244Z,98881.97
2023-03-20T02:42:41.059Z,98876.34
2023-03-20T02:43:56.045Z,98881.47
2023-03-20T02:45:06.578Z,98883.06
2023-03-20T02:46:35.808Z,98883.34
2023-03-20T02:48:21.089Z,98888.75
2023-03-20T02:50:01.649Z,98877.69
2023-03-20T02:51:33.297Z,98883.88
2023-03-20T02:53:14.596Z,98880.91
2023-03-20T02:54:32.212Z,98879.84
2023-03-20T02:55:57.147Z,98880.66
2023-03-20T02:57:16.728Z,98880.94
2023-03-20T02:58:35.373Z,98881.22
2023-03-20T03:00:15.639Z,98873.66
2023-03-20T03:01:44.121Z,98880.94
2023-03-20T03:03:18.152Z,98876.63
2023-03-20T03:04:28.235Z,98873.69
2023-03-20T03:06:00.236Z,98882.81
2023-03-20T03:07:06.686Z,98878.50
2023-03-20T03:08:14.326Z,98877.69
2023-03-20T03:09:41.810Z,98880.41
2023-03-20T03:10:58.217Z,98883.38
2023-03-20T03:12:31.639Z,98880.69
2023-03-20T03:13:56.530Z,98886.88
2023-03-20T03:15:07.769Z,98885.50
2023-03-20T03:16:19.756Z,98889.28
2023-03-20T03:17:27.879Z,98886.88
2023-03-20T03:18:34.598Z,98880.94
2023-03-20T03:19:41.863Z,98886.06
2023-03-20T03:20:48.435Z,98886.34
2023-03-20T03:21:51.815Z,98882.03
2023-03-20T03:22:53.630Z,98888.50
2023-03-20T03:23:56.294Z,98884.19
2023-03-20T03:24:58.336Z,98892.78
2023-03-20T03:26:04.332Z,98895.78
2023-03-20T03:27:18.177Z,98891.72
2023-03-20T03:28:37.664Z,98893.59
2023-03-20T03:29:40.904Z,98899.53
2023-03-20T03:30:45.188Z,98888.78
2023-03-20T03:31:47.381Z,98892.53
2023-03-20T03:33:19.286Z,98891.72
2023-03-20T03:34:23.545Z,98885.28
2023-03-20T03:35:26.244Z,98887.16
2023-03-20T03:36:37.242Z,98894.16
2023-03-20T03:38:21.003Z,98893.59
2023-03-20T03:39:38.307Z,98892.00
2023-03-20T03:41:06.912Z,98890.38
2023-03-20T03:42:41.685Z,98888.50
2023-03-20T03:44:04.611Z,98893.06
2023-03-20T03:45:28.973Z,98900.63
2023-03-20T03:46:54.549Z,98895.22
2023-03-20T03:48:11.505Z,98891.19
2023-03-20T03:49:21.996Z,98895.47
2023-03-20T03:50:31.744Z,98893.34
2023-03-20T03:51:40.106Z,98892.53
2023-03-20T03:52:44.931Z,98892.00
2023-03-20T03:53:58.946Z,98893.63
2023-03-20T03:55:24.004Z,98894.41
2023-03-20T03:56:30.957Z,98901.16
2023-03-20T03:57:46.817Z,98900.06
2023-03-20T03:58:54.707Z,98905.47
2023-03-20T04:00:01.007Z,98900.34
2023-03-20T04:01:07.666Z,98897.94
2023-03-20T04:02:11.670Z,98897.38
2023-03-20T04:03:15.620Z,98897.94
2023-03-20T04:04:20.895Z,98900.88
2023-03-20T04:05:25.025Z,98899.00
2023-03-20T04:06:28.586Z,98901.94
2023-03-20T04:07:30.589Z,98895.75
2023-03-20T04:08:34.086Z,98895.22
2023-03-20T04:09:35.862Z,98895.75
2023-03-20T04:10:37.667Z,98898.72
2023-03-20T04:11:39.987Z,98900.06
2023-03-20T04:12:44.964Z,98902.75
2023-03-20T04:13:50.005Z,98904.09
2023-03-20T04:14:51.845Z,98901.41
2023-03-20T04:15:53.687Z,98901.69
2023-03-20T04:16:55.630Z,98897.38
2023-03-20T04:17:57.415Z,98903.31
2023-03-20T04:18:59.329Z,98896.31
2023-03-20T04:20:01.928Z,98895.78
2023-03-20T04:21:03.966Z,98902.50
2023-03-20T04:22:06.033Z,98898.72
2023-03-20T04:23:07.910Z,98895.22
2023-03-20T04:24:09.686Z,98899.81
2023-03-20T04:25:23.297Z,98895.75
2023-03-20T04:26:25.655Z,98894.41
2023-03-20T04:27:27.451Z,98887.69
2023-03-20T04:28:29.549Z,98895.78
2023-03-20T04:29:31.649Z,98882.31
2023-03-20T04:30:33.521Z,98890.38
2023-03-20T04:31:35.774Z,98894.97
2023-03-20T04:32:37.765Z,98894.69
2023-03-20T04:33:39.885Z,98885.81
2023-03-20T04:34:42.289Z,98881.78
2023-03-20T04:35:44.243Z,98895.78
2023-03-20T04:36:46.059Z,98892.28
2023-03-20T04:37:47.890Z,98899.53
2023-03-20T04:38:49.784Z,98894.69
2023-03-20T04:39:51.940Z,98894.97
2023-03-20T04:40:53.789Z,98901.44
2023-03-20T04:41:55.650Z,98893.34
2023-03-20T04:42:57.407Z,98897.94
2023-03-20T04:43:59.217Z,98896.84
2023-03-20T04:45:01.104Z,98899.00
2023-03-20T04:46:03.149Z,98900.91
2023-03-20T04:47:05.299Z,98900.91
2023-03-20T04:48:08.213Z,98905.19
2023-03-20T04:49:10.386Z,98901.13
2023-03-20T04:50:14.131Z,98907.09
2023-03-20T04:51:16.003Z,98903.59
2023-03-20T04:52:17.818Z,98910.84
2023-03-20T04:53:19.848Z,98910.84
2023-03-20T04:54:21.938Z,98912.72
2023-03-20T04:55:24.476Z,98915.66
2023-03-20T04:56:26.260Z,98919.97
2023-03-20T04:57:28.705Z,98911.66
2023-03-20T04:58:30.534Z,98916.25
2023-03-20T04:59:32.456Z,98915.41
2023-03-20T05:00:34.523Z,98916.25
2023-03-20T05:01:36.676Z,98916.25
2023-03-20T05:02:38.575Z,98917.53
2023-03-20T05:03:40.582Z,98931.56
2023-03-20T05:04:43.167Z,98916.44
2023-03-20T05:05:45.052Z,98925.38
2023-03-20T05:06:49.116Z,98921.03
2023-03-20T05:07:52.406Z,98930.50
2023-03-20T05:08:54.528Z,98922.91
2023-03-20T05:09:56.328Z,98924.00
2023-03-20T05:10:58.384Z,98932.59
2023-03-20T05:12:00.153Z,98929.91
2023-03-20T05:13:01.985Z,98933.69
2023-03-20T05:14:05.135Z,98935.28
2023-03-20T05:15:07.975Z,98933.44
2023-03-20T05:16:09.893Z,98938.81
2023-03-20T05:17:11.747Z,98938.81
2023-03-20T05:18:13.825Z,98934.25
2023-03-20T05:19:15.717Z,98935.09
2023-03-20T05:20:17.549Z,98935.09
2023-03-20T05:21:19.423Z,98934.25
2023-03-20T05:22:21.279Z,98936.94
2023-03-20T05:23:23.141Z,98939.38
2023-03-20T05:24:25.585Z,98929.91
2023-03-20T05:25:27.396Z,98936.69
2023-03-20T05:26:29.180Z,98931.31
2023-03-20T05:27:31.027Z,98931.31
2023-03-20T05:28:32.946Z,98930.22
2023-03-20T05:29:35.035Z,98924.84
2023-03-20T05:30:36.967Z,98931.03
2023-03-20T05:31:39.132Z,98924.56
2023-03-20T05:32:42.245Z,98920.28
2023-03-20T05:33:44.374Z,98920.28
2023-03-20T05:34:46.341Z,98928.06
2023-03-20T05:35:48.213Z,98930.75
2023-03-20T05:36:50.045Z,98930.75
2023-03-20T05:37:51.915Z,98927.25
2023-03-20T05:38:53.763Z,98928.06
2023-03-20T05:39:55.678Z,98942.88
2023-03-20T05:41:01.592Z,98937.22
2023-03-20T05:42:03.584Z,98938.28
2023-03-20T05:43:05.533Z,98939.09
2023-03-20T05:44:07.401Z,98934.53
2023-03-20T05:45:09.807Z,98938.81
2023-03-20T05:46:11.689Z,98942.63
2023-03-20T05:47:13.534Z,98946.09
2023-03-20T05:48:15.466Z,98943.94
2023-03-20T05:49:17.399Z,98953.09
2023-03-20T05:50:20.479Z,98953.66
2023-03-20T05:51:22.597Z,98952.59
2023-03-20T05:52:24.839Z,98951.78
2023-03-20T05:53:26.670Z,98957.97
2023-03-20T05:54:28.970Z,98957.97
2023-03-20T05:55:30.984Z,98951.78
2023-03-20T05:56:32.881Z,98958.78
2023-03-20T05:57:34.808Z,98958.78
2023-03-20T05:58:36.945Z,98955.81
2023-03-20T05:59:38.876Z,98956.06
2023-03-20T06:00:41.104Z,98962.28
2023-03-20T06:01:42.952Z,98956.88
2023-03-20T06:02:47.190Z,98956.63
2023-03-20T06:03:50.223Z,98957.69
2023-03-20T06:04:52.010Z,98963.34
2023-03-20T06:05:53.867Z,98964.97
2023-03-20T06:06:55.923Z,98964.97
2023-03-20T06:07:57.758Z,98961.19
2023-03-20T06:08:59.572Z,98963.34
2023-03-20T06:10:01.475Z,98964.97
2023-03-20T06:11:04.299Z,98970.34
2023-03-20T06:12:06.890Z,98964.97
2023-03-20T06:13:08.789Z,98969.25
2023-03-20T06:14:10.767Z,98964.16
2023-03-20T06:15:13.106Z,98962.28
2023-03-20T06:16:14.944Z,98963.06
2023-03-20T06:17:16.855Z,98960.38
2023-03-20T06:18:18.833Z,98963.88
2023-03-20T06:19:21.940Z,98960.66
2023-03-20T06:20:24.291Z,98955.00
2023-03-20T06:21:26.158Z,98965.78
2023-03-20T06:22:28.113Z,98957.97
2023-03-20T06:23:29.911Z,98958.78
2023-03-20T06:24:32.282Z,98962.53
2023-03-20T06:25:34.464Z,98960.94
2023-03-20T06:26:36.565Z,98962.53
2023-03-20T06:27:39.345Z,98957.16
2023-03-20T06:28:41.111Z,98957.97
2023-03-20T06:29:42.918Z,98964.66
2023-03-20T06:30:44.865Z,98955.53
2023-03-20T06:31:46.685Z,98952.00
2023-03-20T06:32:48.572Z,98959.28
2023-03-20T06:33:50.893Z,98964.16
2023-03-20T06:34:52.792Z,98968.72
2023-03-20T06:35:54.828Z,98965.22
2023-03-20T06:36:56.935Z,98961.72
2023-03-20T06:37:58.855Z,98962.53
2023-03-20T06:39:00.668Z,98964.16
2023-03-20T06:40:04.187Z,98959.84
2023-03-20T06:41:06.996Z,98954.47
2023-03-20T06:42:08.984Z,98961.72
2023-03-20T06:43:12.419Z,98957.97
2023-03-20T06:44:14.300Z,98953.38
2023-03-20T06:45:16.481Z,98956.34
2023-03-20T06:46:18.318Z,98956.06
2023-03-20T06:47:20.646Z,98949.88
2023-03-20T06:48:22.759Z,98974.91
2023-03-20T06:49:24.677Z,98965.22
2023-03-20T06:50:27.213Z,98965.47
2023-03-20T06:51:28.994Z,98967.94
2023-03-20T06:52:30.840Z,98966.31
2023-03-20T06:53:32.699Z,98963.34
2023-03-20T06:54:34.506Z,98968.47
2023-03-20T06:55:37.114Z,98970.63
2023-03-20T06:56:39.065Z,98967.66
2023-03-20T06:57:41.357Z,98969.53
2023-03-20T06:58:43.128Z,98969.53
2023-03-20T06:59:44.986Z,98980.03
2023-03-20T07:00:46.970Z,98977.63
2023-03-20T07:01:48.889Z,98977.63
2023-03-20T07:02:50.764Z,98984.63
2023-03-20T07:03:52.603Z,98988.13
2023-03-20T07:04:54.452Z,98986.50
2023-03-20T07:05:56.336Z,98990.53
2023-03-20T07:06:58.489Z,98988.13
2023-03-20T07:08:01.080Z,98994.03
2023-03-20T07:09:04.152Z,98996.72
2023-03-20T07:10:07.253Z,98997.81
2023-03-20T07:11:09.999Z,99000.22
2023-03-20T07:12:14.964Z,99005.59
2023-03-20T07:13:16.826Z,99006.69
2023-03-20T07:14:18.594Z,99009.09
2023-03-20T07:15:21.130Z,99004.78
2023-03-20T07:16:22.974Z,99004.78
2023-03-20T07:17:24.726Z,99003.44
2023-03-20T07:18:26.619Z,99002.63
2023-03-20T07:19:28.590Z,98996.44
2023-03-20T07:20:30.706Z,99002.63
2023-03-20T07:21:33.321Z,99000.75
2023-03-20T07:22:35.322Z,98995.38
2023-03-20T07:23:37.436Z,98999.13
2023-03-20T07:24:39.284Z,98997.25
2023-03-20T07:25:43.101Z,98996.44
2023-03-20T07:26:45.857Z,99003.44
2023-03-20T07:27:50.672Z,99001.56
2023-03-20T07:28:52.549Z,99006.13
2023-03-20T07:29:54.505Z,98996.44
2023-03-20T07:30:56.756Z,99000.75
2023-03-20T07:32:00.989Z,98996.72
2023-03-20T07:33:02.994Z,98998.34
2023-03-20T07:34:04.817Z,98996.72
2023-03-20T07:35:07.704Z,99003.72
2023-03-20T07:36:09.539Z,99002.91
2023-03-20T07:37:11.408Z,99008.03
2023-03-20T07:38:13.249Z,99007.22
2023-03-20T07:39:15.183Z,99004.78
2023-03-20T07:40:17.685Z,99003.47
2023-03-20T07:41:19.582Z,99013.13
2023-03-20T07:42:21.507Z,99002.84
2023-03-20T07:43:24.371Z,99001.78
2023-03-20T07:44:26.260Z,99004.16
2023-03-20T07:45:28.025Z,99000.91
2023-03-20T07:46:29.850Z,98997.97
2023-03-20T07:47:31.662Z,99007.59
2023-03-20T07:48:34.173Z,98997.09
2023-03-20T07:49:36.029Z,99000.28
2023-03-20T07:50:37.905Z,99000.53
2023-03-20T07:51:39.878Z,99004.50
2023-03-20T07:52:45.562Z,99003.09
2023-03-20T07:53:47.423Z,98998.78
2023-03-20T07:54:49.191Z,98995.78
2023-03-20T07:55:51.368Z,98999.25
2023-03-20T07:56:53.660Z,98992.75
2023-03-20T07:57:55.533Z,98999.69
2023-03-20T07:58:57.377Z,98999.13
2023-03-20T07:59:59.202Z,99005.81
2023-03-20T08:01:01.068Z,98995.59
2023-03-20T08:02:02.863Z,99000.16
2023-03-20T08:03:05.187Z,98994.78
2023-03-20T08:04:07.188Z,99002.59
2023-03-20T08:05:09.904Z,99003.38
2023-03-20T08:06:11.880Z,99001.28
2023-03-20T08:07:14.143Z,99007.19
2023-03-20T08:08:16.055Z,99006.41
2023-03-20T08:09:18.745Z,99003.47
2023-03-20T08:10:20.774Z,99007.25
2023-03-20T08:11:22.713Z,99008.63
2023-03-20T08:12:24.576Z,99011.03
2023-03-20T08:13:26.398Z,99007.81
2023-03-20T08:14:28.233Z,99013.25
2023-03-20T08:15:30.134Z,99013.78
2023-03-20T08:16:32.001Z,99015.94
2023-03-20T08:17:34.001Z,99007.94
2023-03-20T08:18:36.422Z,99008.72
2023-03-20T08:19:38.365Z,99007.13
2023-03-20T08:20:40.501Z,99005.78
2023-03-20T08:21:42.411Z,99007.72
2023-03-20T08:22:49.627Z,99009.59
2023-03-20T08:23:51.392Z,99007.50
2023-03-20T08:24:53.217Z,99004.28
2023-03-20T08:25:55.098Z,99007.78
2023-03-20T08:26:57.410Z,99004.56
2023-03-20T08:28:01.711Z,99008.59
2023-03-20T08:29:03.896Z,99009.72
2023-03-20T08:30:07.018Z,99007.56
2023-03-20T08:31:10.310Z,99004.63
2023-03-20T08:32:12.617Z,99011.06
2023-03-20T08:33:17.106Z,99004.13
2023-03-20T08:34:19.030Z,99000.63
2023-03-20T08:35:45.572Z,99002.75
2023-03-20T08:36:43.346Z,99005.72
2023-03-20T08:37:45.985Z,98996.34
2023-03-20T08:38:49.449Z,99003.06
2023-03-20T08:39:51.286Z,99005.50
2023-03-20T08:40:54.764Z,99001.47
2023-03-20T08:41:56.789Z,98993.13
2023-03-20T08:42:59.444Z,98998.22
2023-03-20T08:44:02.066Z,99016.28
2023-03-20T08:45:04.362Z,99012.50
2023-03-20T08:46:07.143Z,99007.66
2023-03-20T08:47:10.409Z,99008.22
2023-03-20T08:48:12.530Z,99014.13
2023-03-20T08:49:16.037Z,99010.38
2023-03-20T08:50:19.198Z,99011.72
2023-03-20T08:51:21.332Z,99019.28
2023-03-20T08:52:23.216Z,99013.63
2023-03-20T08:53:25.218Z,99007.97
2023-03-20T08:54:27.585Z,99009.59
2023-03-20T08:55:29.470Z,99019.81
2023-03-20T08:56:31.503Z,99011.78
2023-03-20T08:57:33.456Z,99016.09
2023-03-20T08:58:35.248Z,99022.56
2023-03-20T08:59:37.170Z,99021.22
2023-03-20T09:00:38.980Z,99019.88
2023-03-20T09:01:49.434Z,99020.41
2023-03-20T09:02:52.271Z,99013.69
2023-03-20T09:03:54.148Z,99015.03
2023-03-20T09:04:56.303Z,99020.16
2023-03-20T09:05:58.143Z,99021.50
2023-03-20T09:07:01.382Z,99015.03
2023-03-20T09:08:03.597Z,99018.81
2023-03-20T09:09:05.805Z,99020.16
2023-03-20T09:10:09.299Z,99021.25
2023-03-20T09:11:11.141Z,99020.97
2023-03-20T09:12:12.922Z,99015.31
2023-03-20T09:13:26.662Z,99016.94
2023-03-20T09:14:30.101Z,99024.72
2023-03-20T09:15:32.048Z,99024.22
2023-03-20T09:16:33.897Z,99025.84
2023-03-20T09:17:35.899Z,99023.41
2023-03-20T09:18:37.771Z,99023.13
2023-03-20T09:19:42.508Z,99029.88
2023-03-20T09:20:45.300Z,99023.94
2023-03-20T09:21:47.489Z,99026.63
2023-03-20T09:22:49.421Z,99022.84
2023-03-20T09:23:51.230Z,99029.84
2023-03-20T09:24:53.067Z,99029.59
2023-03-20T09:25:54.981Z,99032.84
2023-03-20T09:26:56.912Z,99028.25
2023-03-20T09:27:58.767Z,99029.06
2023-03-20T09:29:00.845Z,99034.16
2023-03-20T09:30:03.007Z,99033.09
2023-03-20T09:31:05.342Z,99036.34
2023-03-20T09:32:08.382Z,99026.63
2023-03-20T09:33:10.564Z,99033.91
2023-03-20T09:34:12.534Z,99038.19
2023-03-20T09:35:14.362Z,99037.16
2023-03-20T09:36:16.661Z,99028.78
2023-03-20T09:37:18.488Z,99031.25
2023-03-20T09:38:21.193Z,99039.88
2023-03-20T09:39:23.901Z,99036.91
2023-03-20T09:40:56.283Z,99031.50
2023-03-20T09:42:13.952Z,99037.97
2023-03-20T09:43:30.279Z,99038.75
2023-03-20T09:45:09.669Z,99030.97
2023-03-20T09:47:21.071Z,99044.69
2023-03-20T09:48:36.092Z,99048.47
2023-03-20T09:49:50.157Z,99040.66
2023-03-20T09:51:11.043Z,99048.22
2023-03-20T09:52:46.069Z,99051.44
2023-03-20T09:54:01.841Z,99054.66
2023-03-20T09:55:20.615Z,99048.47
2023-03-20T09:56:31.243Z,99050.34
2023-03-20T09:57:41.045Z,99046.84
2023-03-20T09:58:47.451Z,99049.81
2023-03-20T09:59:55.442Z,99048.75
2023-03-20T10:01:02.524Z,99049.03
2023-03-20T10:02:24.272Z,99037.16
2023-03-20T10:03:51.065Z,99042.00
2023-03-20T10:04:55.681Z,99047.66
2023-03-20T10:06:04.942Z,99044.44
2023-03-20T10:07:15.563Z,99041.47
2023-03-20T10:08:24.372Z,99046.84
2023-03-20T10:09:31.627Z,99053.34
2023-03-20T10:11:12.917Z,99039.03
2023-03-20T10:13:06.587Z,99048.19
2023-03-20T10:14:18.769Z,99057.91
2023-03-20T10:15:56.959Z,99051.16
2023-03-20T10:17:26.517Z,99056.81
2023-03-20T10:18:34.387Z,99047.38
2023-03-20T10:19:45.493Z,99047.66
2023-03-20T10:20:59.886Z,99054.66
2023-03-20T10:22:29.212Z,99056.81
2023-03-20T10:23:56.440Z,99054.94
2023-03-20T10:25:21.108Z,99054.94
2023-03-20T10:26:24.368Z,99063.56
2023-03-20T10:27:29.237Z,99048.47
2023-03-20T10:28:55.702Z,99058.97
2023-03-20T10:30:11.352Z,99056.28
2023-03-20T10:31:41.223Z,99045.75
2023-03-20T10:33:17.030Z,99049.00
2023-03-20T10:34:49.492Z,99048.47
2023-03-20T10:36:02.717Z,99048.47
2023-03-20T10:37:36.660Z,99055.72
2023-03-20T10:38:58.647Z,99043.63
2023-03-20T10:40:38.542Z,99046.56
2023-03-20T10:41:52.936Z,99033.91
2023-03-20T10:43:02.186Z,99041.44
2023-03-20T10:44:10.482Z,99040.66
2023-03-20T10:45:18.321Z,99040.94
2023-03-20T10:46:30.809Z,99049.00
2023-03-20T10:47:40.846Z,99051.44
2023-03-20T10:49:04.004Z,99045.22
2023-03-20T10:50:26.571Z,99046.84
2023-03-20T10:51:46.333Z,99053.56
2023-03-20T10:52:52.336Z,99042.25
2023-03-20T10:54:02.900Z,99043.84
2023-03-20T10:55:14.971Z,99054.63
2023-03-20T10:56:32.412Z,99046.84
2023-03-20T10:57:47.410Z,99048.72
2023-03-20T10:59:05.512Z,99052.47
2023-03-20T11:00:19.827Z,99045.47
2023-03-20T11:01:23.221Z,99042.25
2023-03-20T11:02:32.120Z,99048.72
2023-03-20T11:03:39.530Z,99042.25
2023-03-20T11:04:41.871Z,99042.78
2023-03-20T11:05:44.804Z,99042.25
2023-03-20T11:07:28.482Z,99038.16
2023-03-20T11:08:37.905Z,99045.19
2023-03-20T11:09:39.833Z,99040.63
2023-03-20T11:10:43.988Z,99041.16
2023-03-20T11:11:52.766Z,99040.06
2023-03-20T11:12:55.102Z,99037.66
2023-03-20T11:13:57.085Z,99041.94
2023-03-20T11:15:23.606Z,99037.94
2023-03-20T11:16:31.078Z,99036.03
2023-03-20T11:17:32.901Z,99041.44
2023-03-20T11:18:34.876Z,99045.19
2023-03-20T11:19:41.133Z,99041.97
2023-03-20T11:20:55.347Z,99042.47
2023-03-20T11:22:02.090Z,99034.69
2023-03-20T11:23:08.212Z,99037.38
2023-03-20T11:24:42.224Z,99036.00
2023-03-20T11:26:00.214Z,99038.97
2023-03-20T11:27:26.618Z,99034.16
2023-03-20T11:28:38.321Z,99037.13
2023-03-20T11:29:45.160Z,99032.78
2023-03-20T11:31:04.063Z,99040.56
2023-03-20T11:32:31.350Z,99035.19
2023-03-20T11:33:44.282Z,99042.75
2023-03-20T11:34:46.391Z,99034.94
2023-03-20T11:35:54.907Z,99029.78
2023-03-20T11:37:09.825Z,99039.53
2023-03-20T11:38:21.602Z,99040.81
2023-03-20T11:39:35.508Z,99038.94
2023-03-20T11:40:38.644Z,99035.69
2023-03-20T11:41:51.851Z,99034.63
2023-03-20T11:43:11.416Z,99034.06
2023-03-20T11:44:32.116Z,99035.13
2023-03-20T11:45:44.147Z,99030.25
2023-03-20T11:46:59.868Z,99031.88
2023-03-20T11:48:04.124Z,99036.47
2023-03-20T11:49:21.048Z,99032.13
2023-03-20T11:50:31.717Z,99038.56
2023-03-20T11:51:36.348Z,99046.16
2023-03-20T11:52:40.546Z,99030.75
2023-03-20T11:54:06.792Z,99036.97
2023-03-20T11:55:28.529Z,99039.91
2023-03-20T11:56:34.397Z,99035.59
2023-03-20T11:57:42.729Z,99034.50
2023-03-20T11:59:11.682Z,99032.56
2023-03-20T12:00:30.283Z,99029.06
2023-03-20T12:01:47.076Z,99023.41
2023-03-20T12:02:50.566Z,99027.44
2023-03-20T12:04:04.466Z,99022.31
2023-03-20T12:05:37.150Z,99022.81
2023-03-20T12:06:56.324Z,99025.22
2023-03-20T12:08:29.784Z,99018.75
2023-03-20T12:09:52.403Z,99017.38
2023-03-20T12:11:06.022Z,99007.66
2023-03-20T12:12:54.453Z,99015.47
2023-03-20T12:14:01.525Z,99005.75
2023-03-20T12:15:16.021Z,99001.16
2023-03-20T12:16:25.124Z,99002.50
2023-03-20T12:17:58.287Z,98994.34
2023-03-20T12:19:18.034Z,98992.72
2023-03-20T12:20:36.763Z,98992.44
2023-03-20T12:22:12.504Z,98992.94
2023-03-20T12:23:29.464Z,98991.69
2023-03-20T12:24:46.159Z,98997.03
2023-03-20T12:26:04.624Z,98992.66
2023-03-20T12:27:16.323Z,98999.69
2023-03-20T12:28:47.369Z,98992.94
2023-03-20T12:30:01.110Z,98984.28
2023-03-20T12:31:28.675Z,98991.84
2023-03-20T12:32:40.343Z,98986.16
2023-03-20T12:33:55.312Z,98983.22
2023-03-20T12:35:16.712Z,98982.66
2023-03-20T12:36:32.426Z,98977.56
2023-03-20T12:37:35.168Z,98977.84
2023-03-20T12:38:37.512Z,98980.31
2023-03-20T12:39:54.850Z,98971.63
2023-03-20T12:41:26.526Z,98971.88
2023-03-20T12:42:55.275Z,98972.97
2023-03-20T12:44:08.067Z,98971.13
2023-03-20T12:45:27.694Z,98970.03
2023-03-20T12:46:49.532Z,98966.00
2023-03-20T12:48:20.642Z,98966.22
2023-03-20T12:50:09.937Z,98966.22
2023-03-20T12:51:17.665Z,98963.59
2023-03-20T12:53:05.421Z,98959.78
2023-03-20T12:54:27.879Z,98949.00
2023-03-20T12:55:56.876Z,98963.03
2023-03-20T12:57:21.120Z,98963.38
2023-03-20T12:58:47.399Z,98958.50
2023-03-20T13:00:28.987Z,98962.50
2023-03-20T13:01:53.647Z,98959.28
2023-03-20T13:03:15.830Z,98957.97
2023-03-20T13:04:42.152Z,98954.19
2023-03-20T13:06:09.866Z,98955.81
2023-03-20T13:07:19.892Z,98949.59
2023-03-20T13:08:33.827Z,98949.88
2023-03-20T13:09:57.317Z,98950.16
2023-03-20T13:11:15.464Z,98942.06
2023-03-20T13:12:26.231Z,98946.91
2023-03-20T13:13:49.635Z,98948.53
2023-03-20T13:15:16.604Z,98938.25
2023-03-20T13:16:33.398Z,98940.44
2023-03-20T13:17:54.440Z,98935.03
2023-03-20T13:19:05.654Z,98940.44
2023-03-20T13:20:07.436Z,98936.69
2023-03-20T13:21:38.456Z,98935.56
2023-03-20T13:23:04.555Z,98938.78
2023-03-20T13:24:18.644Z,98933.38
2023-03-20T13:25:36.773Z,98924.25
2023-03-20T13:27:06.102Z,98929.06
2023-03-20T13:28:39.607Z,98925.28
2023-03-20T13:30:01.316Z,98923.69
2023-03-20T13:31:16.663Z,98922.06